Skip to main content

NOAA/GLERL Met Station at Michigan City, IN

Previous 5 days (top of hour only)
See also Previous 3 Hours (2 minute increments)
Jump down to Data
Switch to [English][Metric]
Zoom: Click and drag, Pan: shift-click and drag, Unzoom: double-click, Unzoom All






Note: Speed = mean wind during 2-minute period at top of hour,
Gust = max wind during 2-minute period at top of hour,
Peak = max wind during entire hour.
• See also 5-day windrose plot


NOAA/GLERL Met Station at Michigan City, IN

Previous 5 days (top of hour only)
See also Previous 3 Hours (2 minute increments)
Jump up to Graphs
Switch to [English][Metric]
                  Wind  Wind  Wind   Air   Dew   Rel     Sta   PAR
                   Spd   Gst   Dir  Temp    Pt   Hum    Pres uE/m2/
YYYY-MM-DD   CDT   m/s   m/s   deg     C     C     %      mb   sec
2021-04-20 00:00 -99.0 -99.0   -99   0.0   0.0   0.0    0.00     0
2021-04-19 13:00   4.2   5.0   333   5.2   4.5  95.1  989.00   164
2021-04-19 12:00   7.5   8.7   337   5.7   4.5  91.9  988.50   164
2021-04-19 11:00   6.6   7.0   254   9.2   4.1  70.2  987.40   492
2021-04-19 10:00   7.3   8.0   260   9.4   4.0  69.0  986.70   328
2021-04-19 09:00   8.2   8.8   246   9.8   3.4  64.2  986.80   164
2021-04-19 08:00   9.9  10.8   231  10.2   1.8  55.7  986.30   328
2021-04-19 07:00   7.2   8.0   205  10.3   0.5  50.5  986.20   164
2021-04-19 06:00   8.1   8.9   223  10.2   0.9  52.3  986.20     0
2021-04-19 05:00   6.5   7.3   212   9.7   0.9  53.9  986.20     0
2021-04-19 04:00   6.8   7.7   216  10.2   0.8  51.7  986.60     0
2021-04-19 03:00   5.6   6.2   208  10.4   0.8  51.1  986.60     0
2021-04-19 02:00   5.4   6.3   206  11.0   0.2  47.2  986.90     0
2021-04-19 01:00   4.7   5.2   198  11.8  -0.3  43.1  987.40     0
2021-04-19 00:00   3.9   4.4   197  12.2  -0.9  40.2  987.50     0
2021-04-18 23:00   4.6   5.0   205  13.1  -1.5  36.2  987.90     0
2021-04-18 22:00   3.6   4.6   178  13.9  -1.7  33.7  987.80     0
2021-04-18 21:00   2.0   2.7   178  14.2  -1.4  33.8  987.90     0
2021-04-18 20:00   1.2   1.4   175  14.7  -2.6  30.0  987.90     0
2021-04-18 19:00   1.4   1.4   109  14.3  -3.0  30.0  987.70     0
2021-04-18 18:00   1.7   1.8    76  13.6  -2.9  31.6  988.40   164
2021-04-18 17:00   2.0   2.3    47  12.5   0.1  42.2  988.40   327
2021-04-18 16:00   1.5   1.5     1  13.3  -1.2  36.4  988.60   655
2021-04-18 15:00   2.0   2.1    35  11.3   0.2  46.1  989.20  1194
2021-04-18 14:00   1.7   1.8    26  10.2   2.1  56.9  989.90  1311
2021-04-18 13:00   3.1   3.4    46   8.2   1.6  63.1  990.30  1147
2021-04-18 12:00   1.8   1.9    29   7.8  -0.1  57.4  990.90  1311
2021-04-18 11:00   0.7   1.0   348   8.8   1.7  60.7  991.40   854
2021-04-18 10:00   1.9   2.2     3   7.4   2.6  71.2  991.80   677
2021-04-18 09:00   0.2   0.4     3   7.0   2.6  73.7  991.90   656
2021-04-18 08:00   0.7   0.9   176   5.8   2.1  77.2  992.00   492
2021-04-18 07:00   1.4   1.7   147   3.3   0.4  81.2  991.70   328
2021-04-18 06:00   1.5   1.9   164   2.5   0.6  87.0  991.50     0
2021-04-18 05:00   2.3   2.5   225   4.8   2.4  84.2  991.40     0
2021-04-18 04:00   2.2   2.5   216   3.6   1.2  84.0  991.40     0
2021-04-18 03:00   1.3   1.8   194   3.8   0.5  79.1  991.30     0
2021-04-18 02:00   2.6   2.9   197   4.0   0.5  77.8  991.20     0
2021-04-18 01:00   1.5   1.8   198   3.8   1.1  82.6  991.70     0
2021-04-18 00:00   3.2   3.5   264   5.7   1.1  72.0  991.80     0
2021-04-17 23:00   2.5   3.0   282   5.3   0.2  69.6  991.70     0
2021-04-17 22:00   2.8   3.4   286   5.2   1.3  75.6  992.00     0
2021-04-17 21:00   1.8   2.3   337   5.3  -0.3  66.9  992.00     0
2021-04-17 20:00   1.6   2.0    19   5.5  -0.1  66.9  991.60     0
2021-04-17 19:00   2.8   3.2    26   5.6  -0.4  65.3  991.50     7
2021-04-17 18:00   3.8   4.3    25   5.6   0.6  70.3  991.40   328
2021-04-17 17:00   0.9   1.1    28   5.3   2.2  80.4  991.70   819
2021-04-17 16:00   4.0   4.6   338   6.0   3.0  81.2  991.70  1147
2021-04-17 15:00   4.7   5.2   358   5.7   3.0  82.9  991.90  1421
2021-04-17 14:00   5.0   5.6   336   5.4   3.0  84.7  992.00   984
2021-04-17 13:00   3.7   4.0   329   5.3   2.8  83.7  991.90   786
2021-04-17 12:00   4.1   4.7     3   4.9   3.0  87.7  991.70   984
2021-04-17 11:00   5.7   6.3    18   4.3   2.8  90.1  991.70  1148
2021-04-17 10:00   4.6   5.4    10   4.4   3.1  90.9  991.70   889
2021-04-17 09:00   3.6   4.3   358   4.9   3.3  89.1  991.80  1012
2021-04-17 08:00   3.1   3.5    15   4.4   3.0  90.4  991.50   328
2021-04-17 07:00   3.4   4.1    24   4.3   3.2  92.6  991.20   205
2021-04-17 06:00   4.4   5.0   354   4.0   3.2  94.4  990.70     0
2021-04-17 05:00   4.5   5.5   342   3.8   2.8  93.4  990.70     0
2021-04-17 04:00   4.9   5.4   344   3.9   2.8  92.8  990.80     0
2021-04-17 03:00   6.0   6.4   356   3.7   2.6  92.4  990.50     0
2021-04-17 02:00   5.6   6.0   355   3.8   2.6  91.9  990.80     0
2021-04-17 01:00   4.5   5.1   336   3.8   2.2  89.5  991.10     0
2021-04-17 00:00   2.6   3.3   322   4.0   2.2  88.3  991.50     0
2021-04-16 23:00   1.9   2.7   351   4.2   1.9  84.8  992.00     0
2021-04-16 22:00   3.1   3.7    29   4.3   2.2  86.3  992.30     0
2021-04-16 21:00   4.4   4.9    24   4.0   2.0  86.6  992.50     0
2021-04-16 20:00   3.5   4.2    32   4.0   1.9  86.2  992.30     0
2021-04-16 19:00   5.0   5.5    50   4.2   1.9  84.9  991.80     0
2021-04-16 18:00   5.3   5.7    44   4.4   2.1  84.7  991.70   328
2021-04-16 17:00   4.2   4.7    33   4.4   2.3  86.2  991.90   820
2021-04-16 16:00   3.6   4.2    26   4.4   2.1  85.1  992.10  1277
2021-04-16 15:00   4.2   4.9    33   4.0   1.8  85.6  992.30   656
2021-04-16 14:00   6.1   7.0    12   4.0   1.8  85.6  992.30   670
2021-04-16 13:00   6.0   7.0   358   4.2   1.6  83.4  992.60   697
2021-04-16 12:00   6.0   6.7   348   4.6   1.7  81.3  993.30   820
2021-04-16 11:00   5.8   6.8   332   4.4   1.5  81.2  993.80   656
2021-04-16 10:00   5.8   6.3   355   4.4   1.7  82.5  994.00   526
2021-04-16 09:00   5.0   5.7   353   4.5   2.1  84.3  993.70   984
2021-04-16 08:00   6.8   7.7    17   3.9   2.1  88.0  993.40   349
2021-04-16 07:00   6.1   6.5    23   4.3   2.2  86.3  993.20   205
2021-04-16 06:00   5.7   6.2    29   4.3   2.2  86.2  993.00     0
2021-04-16 05:00   8.5   9.2   355   6.0   3.0  81.1  992.50     0
2021-04-16 04:00   6.8   7.4   284   6.6   3.6  80.9  992.40     0
2021-04-16 03:00   6.6   7.4   265   6.6   2.9  77.4  992.80     0
2021-04-16 02:00   6.6   7.1   266   6.5   3.5  81.1  993.30     0
2021-04-16 01:00   5.7   6.2   252   6.3   2.9  78.6  993.70     0
2021-04-16 00:00   4.3   4.7   246   5.7   1.6  74.8  993.70     0
2021-04-15 23:00   3.4   3.9   262   5.2   1.2  75.1  993.80     0
2021-04-15 22:00   1.5   1.6   290   5.0   1.1  75.6  993.80     0
2021-04-15 21:00   1.4   1.8    23   5.1   1.2  75.9  993.90     0
2021-04-15 20:00   2.1   2.5    41   5.4   0.8  71.9  993.60     0
2021-04-15 19:00   2.8   3.2    29   5.8   0.8  70.4  993.40     7
2021-04-15 18:00   4.6   5.3    36   5.7   0.3  68.2  993.60   328
2021-04-15 17:00   5.6   6.1    39   5.6   1.1  72.7  993.70   806
2021-04-15 16:00   5.3   5.9    32   5.4   1.7  76.8  993.80  1140
2021-04-15 15:00   5.7   6.1    13   5.1   1.5  77.3  993.90  1311
2021-04-15 14:00   4.5   4.9   352   6.3   1.8  72.8  994.00  1633
2021-04-15 13:00   5.6   6.3   319   5.7   2.1  77.3  994.10  1005
2021-04-15 12:00   7.7   8.4   301   5.5   2.0  78.3  994.10   984
2021-04-15 11:00   8.5   9.3   306   5.1   2.0  80.5  993.90   984
2021-04-15 10:00   8.6   9.5   318   4.9   1.8  80.5  993.90   739
2021-04-15 09:00   8.5   9.5   308   4.6   1.3  79.3  993.70   164
2021-04-15 08:00   9.2   9.8   294   4.4   0.5  75.6  993.60   164
2021-04-15 07:00   9.3  10.2   313   4.2   0.5  76.8  993.40     0
2021-04-15 06:00   9.3  10.4   299   4.4   0.2  73.9  992.90     0
2021-04-15 05:00   7.3   8.1   283   4.8   0.3  72.4  992.60     0
2021-04-15 04:00   8.3   8.9   276   4.6  -1.2  66.1  992.60     0
2021-04-15 03:00   8.0   8.8   290   4.5  -0.5  70.0  993.00     0
2021-04-15 02:00   6.2   6.9   276   4.3  -0.1  73.1  993.30     0
2021-04-15 01:00   3.9   4.8   297   4.2  -0.5  71.2  993.80     0
2021-04-15 00:00   2.9   3.4   337   3.9  -1.2  69.5  994.20     0
2021-04-14 23:00   2.0   2.5   328   3.9  -1.2  69.3  994.60     0
2021-04-14 22:00   2.6   3.5    12   4.0  -1.4  67.7  995.10     0
2021-04-14 21:00   3.9   4.8    28   4.0  -1.8  66.0  995.40     0
2021-04-14 20:00   5.5   6.2    30   4.2  -2.2  63.1  995.40     0
2021-04-14 19:00   4.7   5.5    41   4.6  -1.8  63.1  995.00     0